Time;durP1;ratioP1;P1;durP2;ratioP2;P2;SDS_P1;SDS_P2;PMS_P1;PMS_P2;Temp;Humidity;BMP_temperature;BMP_pressure;BME280_temperature;BME280_humidity;BME280_pressure;Samples;Min_cycle;Max_cycle;Signal;HPM_P1;HPM_P2
2023/12/17 00:01:18;;;;;;;;;;;2.60;99.90;;;;;;5073871;28;19909;-79
2023/12/17 00:03:43;;;;;;;;;;;2.50;99.90;;;;;;5076959;28;19928;-79
2023/12/17 00:06:09;;;;;;;;;;;2.50;99.90;;;;;;5072975;28;19919;-79
2023/12/17 00:08:34;;;;;;;;;;;2.50;99.90;;;;;;5076644;28;19939;-79
2023/12/17 00:11:03;;;;;;;;;;;2.50;99.90;;;;;;5055514;28;20345;-79
2023/12/17 00:13:28;;;;;;;;;;;2.40;99.90;;;;;;5055623;28;19924;-79
2023/12/17 00:15:54;;;;;;;;;;;2.40;99.90;;;;;;5057265;28;20287;-79
2023/12/17 00:18:19;;;;;;;;;;;2.40;99.90;;;;;;5055803;28;20408;-79
2023/12/17 00:20:45;;;;;;;;;;;2.40;99.90;;;;;;5073771;28;19908;-79
2023/12/17 00:23:10;;;;;;;;;;;2.40;99.90;;;;;;5065071;28;19924;-78
2023/12/17 00:25:36;;;;;;;;;;;2.40;99.90;;;;;;5055453;28;19908;-79
2023/12/17 00:28:01;;;;;;;;;;;2.40;99.90;;;;;;5075031;28;19927;-79
2023/12/17 00:30:27;;;;;;;;;;;2.30;99.90;;;;;;5069815;28;20007;-79
2023/12/17 00:32:53;;;;;;;;;;;2.30;99.90;;;;;;5068096;28;19967;-79
2023/12/17 00:35:18;;;;;;;;;;;2.30;99.90;;;;;;5058451;28;19907;-79
2023/12/17 00:37:44;;;;;;;;;;;2.30;99.90;;;;;;5097385;28;20412;-79
2023/12/17 00:40:09;;;;;;;;;;;2.30;99.90;;;;;;5075398;28;19908;-79
2023/12/17 00:42:35;;;;;;;;;;;2.30;99.90;;;;;;5071917;28;20087;-79
2023/12/17 00:45:00;;;;;;;;;;;2.30;99.90;;;;;;5054880;28;19909;-79
2023/12/17 00:47:26;;;;;;;;;;;2.30;99.90;;;;;;5055929;28;19955;-79
2023/12/17 00:49:52;;;;;;;;;;;2.30;99.90;;;;;;5060933;28;20357;-79
2023/12/17 00:52:19;;;;;;;;;;;2.20;99.90;;;;;;5058691;28;19916;-79
2023/12/17 00:54:45;;;;;;;;;;;2.20;99.90;;;;;;5048791;28;19919;-79
2023/12/17 00:57:10;;;;;;;;;;;2.20;99.90;;;;;;5060771;28;20112;-79
2023/12/17 00:59:36;;;;;;;;;;;2.10;99.90;;;;;;5039409;28;19967;-79
2023/12/17 01:02:01;;;;;;;;;;;2.10;99.90;;;;;;5042869;28;19958;-79
2023/12/17 01:04:27;;;;;;;;;;;2.10;99.90;;;;;;5039292;28;19908;-79
2023/12/17 01:06:52;;;;;;;;;;;2.10;99.90;;;;;;5039174;28;19908;-79
2023/12/17 01:09:21;;;;;;;;;;;2.00;99.90;;;;;;5058590;28;19917;-79
2023/12/17 01:11:46;;;;;;;;;;;2.00;99.90;;;;;;5057212;28;20433;-79
2023/12/17 01:14:12;;;;;;;;;;;2.00;99.90;;;;;;5046798;28;19924;-79
2023/12/17 01:16:37;;;;;;;;;;;1.90;99.90;;;;;;5056834;28;19909;-79
2023/12/17 01:19:03;;;;;;;;;;;1.90;99.90;;;;;;5038821;28;19909;-79
2023/12/17 01:21:29;;;;;;;;;;;1.90;99.90;;;;;;5058459;28;19995;-78
2023/12/17 01:23:57;;;;;;;;;;;1.90;99.90;;;;;;5056490;28;20283;-79
2023/12/17 01:26:29;;;;;;;;;;;1.80;99.90;;;;;;5038763;28;20366;-79
2023/12/17 01:28:54;;;;;;;;;;;1.80;99.90;;;;;;5048704;28;20383;-79
2023/12/17 01:31:20;;;;;;;;;;;1.80;99.90;;;;;;5050335;28;19928;-79
2023/12/17 01:33:46;;;;;;;;;;;1.70;99.90;;;;;;5055098;28;19955;-79
2023/12/17 01:36:11;;;;;;;;;;;1.70;99.90;;;;;;5062285;28;19923;-79
2023/12/17 01:38:37;;;;;;;;;;;1.70;99.90;;;;;;5056192;28;20473;-80
2023/12/17 01:41:03;;;;;;;;;;;1.70;99.90;;;;;;5041020;28;19923;-79
2023/12/17 01:43:28;;;;;;;;;;;1.70;99.90;;;;;;5056429;28;20391;-79
2023/12/17 01:45:54;;;;;;;;;;;1.70;99.90;;;;;;5040928;28;19928;-79
2023/12/17 01:48:20;;;;;;;;;;;1.70;99.90;;;;;;5085533;28;19916;-79
2023/12/17 01:50:46;;;;;;;;;;;1.70;99.90;;;;;;5055971;28;19909;-79
2023/12/17 01:53:12;;;;;;;;;;;1.70;99.90;;;;;;5035910;28;19917;-79
2023/12/17 01:55:38;;;;;;;;;;;1.70;99.90;;;;;;5028792;28;19922;-78
2023/12/17 01:58:04;;;;;;;;;;;1.60;99.90;;;;;;5038259;28;19913;-79
2023/12/17 02:00:29;;;;;;;;;;;1.60;99.90;;;;;;5038873;28;19936;-79
2023/12/17 02:02:55;;;;;;;;;;;1.60;99.90;;;;;;5038012;28;19912;-79
2023/12/17 02:05:20;;;;;;;;;;;1.50;99.90;;;;;;5064284;28;20386;-78
2023/12/17 02:07:46;;;;;;;;;;;1.50;99.90;;;;;;5058097;28;19917;-79
2023/12/17 02:10:12;;;;;;;;;;;1.40;99.90;;;;;;5038041;28;20286;-79
2023/12/17 02:12:37;;;;;;;;;;;1.40;99.90;;;;;;5057489;28;19912;-79
2023/12/17 02:15:03;;;;;;;;;;;1.40;99.90;;;;;;5054984;28;19950;-79
2023/12/17 02:17:32;;;;;;;;;;;1.40;99.90;;;;;;5038548;28;20264;-79
2023/12/17 02:19:58;;;;;;;;;;;1.40;99.90;;;;;;5050045;28;19968;-79
2023/12/17 02:22:24;;;;;;;;;;;1.40;99.90;;;;;;5048894;28;20430;-79
2023/12/17 02:24:53;;;;;;;;;;;1.30;99.90;;;;;;5074385;28;19915;-79
2023/12/17 02:27:21;;;;;;;;;;;1.40;99.90;;;;;;5068691;28;19904;-79
2023/12/17 02:29:47;;;;;;;;;;;1.40;99.90;;;;;;5038219;28;20291;-79
2023/12/17 02:32:14;;;;;;;;;;;1.40;99.90;;;;;;5043505;28;19917;-79
2023/12/17 02:34:40;;;;;;;;;;;1.30;99.90;;;;;;5060336;28;19916;-79
2023/12/17 02:37:05;;;;;;;;;;;1.40;99.90;;;;;;5075272;28;20383;-79
2023/12/17 02:39:31;;;;;;;;;;;1.40;99.90;;;;;;5075084;28;19913;-79
2023/12/17 02:41:58;;;;;;;;;;;1.30;99.90;;;;;;5076726;28;20038;-79
2023/12/17 02:44:23;;;;;;;;;;;1.30;99.90;;;;;;5075241;28;19963;-79
2023/12/17 02:46:49;;;;;;;;;;;1.30;99.90;;;;;;5068157;28;19900;-79
2023/12/17 02:49:14;;;;;;;;;;;1.20;99.90;;;;;;5059625;28;19964;-79
2023/12/17 02:51:40;;;;;;;;;;;1.20;99.90;;;;;;5048993;28;19912;-79
2023/12/17 02:54:05;;;;;;;;;;;1.20;99.90;;;;;;5042230;28;19940;-79
2023/12/17 02:56:37;;;;;;;;;;;1.10;99.90;;;;;;5031375;28;19936;-79
2023/12/17 02:59:04;;;;;;;;;;;1.10;99.90;;;;;;5053619;28;19912;-79
2023/12/17 03:01:29;;;;;;;;;;;1.10;99.90;;;;;;5043180;28;19912;-79
2023/12/17 03:03:55;;;;;;;;;;;1.20;99.90;;;;;;5053596;28;20387;-79
2023/12/17 03:06:20;;;;;;;;;;;1.20;99.90;;;;;;5053883;28;19919;-79
2023/12/17 03:08:46;;;;;;;;;;;1.20;99.90;;;;;;5071616;28;19956;-80
2023/12/17 03:11:11;;;;;;;;;;;1.30;99.90;;;;;;5056177;28;19924;-79
2023/12/17 03:13:37;;;;;;;;;;;1.30;99.90;;;;;;5055002;28;19913;-79
2023/12/17 03:16:02;;;;;;;;;;;1.30;99.90;;;;;;5062269;28;20322;-79
2023/12/17 03:18:28;;;;;;;;;;;1.30;99.90;;;;;;5043991;28;19916;-79
2023/12/17 03:20:53;;;;;;;;;;;1.30;99.90;;;;;;5070478;28;20338;-79
2023/12/17 03:23:19;;;;;;;;;;;1.40;99.90;;;;;;5038265;28;19917;-79
2023/12/17 03:25:44;;;;;;;;;;;1.30;99.90;;;;;;5054635;28;19951;-79
2023/12/17 03:28:13;;;;;;;;;;;1.40;99.90;;;;;;5040463;28;19948;-79
2023/12/17 03:30:38;;;;;;;;;;;1.30;99.90;;;;;;5031975;28;19917;-79
2023/12/17 03:33:04;;;;;;;;;;;1.30;99.90;;;;;;5045996;28;19992;-79
2023/12/17 03:35:32;;;;;;;;;;;1.30;99.90;;;;;;5039268;28;19916;-79
2023/12/17 03:37:58;;;;;;;;;;;1.30;99.90;;;;;;5074261;28;19916;-79
2023/12/17 03:40:24;;;;;;;;;;;1.30;99.90;;;;;;5072678;28;19908;-79
2023/12/17 03:42:49;;;;;;;;;;;1.30;99.90;;;;;;5076582;28;19924;-79
2023/12/17 03:45:15;;;;;;;;;;;1.20;99.90;;;;;;5036122;28;19909;-79
2023/12/17 03:47:46;;;;;;;;;;;1.20;99.90;;;;;;5053183;28;19916;-79
2023/12/17 03:50:12;;;;;;;;;;;1.20;99.90;;;;;;5064736;28;19924;-79
2023/12/17 03:52:38;;;;;;;;;;;1.20;99.90;;;;;;5035771;28;20383;-79
2023/12/17 03:55:04;;;;;;;;;;;1.10;99.90;;;;;;5022550;28;19963;-79
2023/12/17 03:57:29;;;;;;;;;;;1.20;99.90;;;;;;5054036;28;19913;-79
2023/12/17 03:59:54;;;;;;;;;;;1.10;99.90;;;;;;5052606;28;19954;-79
2023/12/17 04:02:20;;;;;;;;;;;1.10;99.90;;;;;;5057024;28;19905;-79
2023/12/17 04:04:45;;;;;;;;;;;1.10;99.90;;;;;;5032015;28;20309;-79
2023/12/17 04:07:11;;;;;;;;;;;1.10;99.90;;;;;;5017321;28;19935;-79
2023/12/17 04:09:36;;;;;;;;;;;1.10;99.90;;;;;;5049434;28;19896;-79
2023/12/17 04:12:02;;;;;;;;;;;1.10;99.90;;;;;;5061820;28;20321;-79
2023/12/17 04:14:28;;;;;;;;;;;1.20;99.90;;;;;;5053679;28;20007;-79
2023/12/17 04:16:53;;;;;;;;;;;1.30;99.90;;;;;;5035662;28;20405;-79
2023/12/17 04:19:19;;;;;;;;;;;1.40;99.90;;;;;;5054592;28;19920;-79
2023/12/17 04:21:44;;;;;;;;;;;1.60;99.90;;;;;;5035289;28;20363;-79
2023/12/17 04:24:09;;;;;;;;;;;1.70;99.90;;;;;;5062560;28;19912;-79
2023/12/17 04:26:36;;;;;;;;;;;1.70;99.90;;;;;;5057301;28;20521;-79
2023/12/17 04:29:01;;;;;;;;;;;1.90;99.90;;;;;;5035757;28;19909;-79
2023/12/17 04:31:27;;;;;;;;;;;1.90;99.90;;;;;;5057903;28;19909;-79
2023/12/17 04:33:52;;;;;;;;;;;2.00;99.90;;;;;;5048945;28;19916;-79
2023/12/17 04:36:18;;;;;;;;;;;2.00;99.90;;;;;;5090639;28;19916;-79
2023/12/17 04:38:46;;;;;;;;;;;2.00;99.90;;;;;;5081691;28;19900;-79
2023/12/17 04:41:12;;;;;;;;;;;2.10;99.90;;;;;;5081969;28;19916;-79
2023/12/17 04:43:38;;;;;;;;;;;2.10;99.90;;;;;;5059693;28;20439;-79
2023/12/17 04:46:03;;;;;;;;;;;2.10;99.90;;;;;;5059285;28;19919;-79
2023/12/17 04:48:29;;;;;;;;;;;2.10;99.90;;;;;;5057154;28;19913;-79
2023/12/17 04:50:54;;;;;;;;;;;1.90;99.90;;;;;;5073315;28;20066;-78
2023/12/17 04:53:20;;;;;;;;;;;1.90;99.90;;;;;;5063392;28;19922;-79
2023/12/17 04:55:45;;;;;;;;;;;1.90;99.90;;;;;;5062979;28;20003;-79
2023/12/17 04:58:11;;;;;;;;;;;1.90;99.90;;;;;;5055446;28;20341;-79
2023/12/17 05:00:37;;;;;;;;;;;1.90;99.90;;;;;;5073250;28;19955;-79
2023/12/17 05:03:03;;;;;;;;;;;1.90;99.90;;;;;;5061409;28;20291;-79
2023/12/17 05:05:28;;;;;;;;;;;1.90;99.90;;;;;;5063451;28;19916;-79
2023/12/17 05:07:54;;;;;;;;;;;1.90;99.90;;;;;;5053220;28;19912;-79
2023/12/17 05:10:20;;;;;;;;;;;1.90;99.90;;;;;;5056056;28;19920;-79
2023/12/17 05:12:46;;;;;;;;;;;1.90;99.90;;;;;;5073007;28;20260;-80
2023/12/17 05:15:11;;;;;;;;;;;1.90;99.90;;;;;;5060639;28;19934;-79
2023/12/17 05:17:37;;;;;;;;;;;1.90;99.90;;;;;;5050065;28;19924;-79
2023/12/17 05:20:02;;;;;;;;;;;1.90;99.90;;;;;;5058253;28;19913;-79
2023/12/17 05:22:28;;;;;;;;;;;1.80;99.90;;;;;;5053175;28;19897;-79
2023/12/17 05:24:53;;;;;;;;;;;1.90;99.90;;;;;;5035007;28;19912;-79
2023/12/17 05:27:21;;;;;;;;;;;1.90;99.90;;;;;;5053252;28;20417;-79
2023/12/17 05:29:47;;;;;;;;;;;1.90;99.90;;;;;;5064415;28;19925;-79
2023/12/17 05:32:12;;;;;;;;;;;2.00;99.90;;;;;;5025620;28;19917;-79
2023/12/17 05:34:38;;;;;;;;;;;2.00;99.90;;;;;;5036721;28;20357;-79
2023/12/17 05:37:04;;;;;;;;;;;2.00;99.90;;;;;;5055942;28;19897;-79
2023/12/17 05:39:29;;;;;;;;;;;2.10;99.90;;;;;;5038279;28;19909;-79
2023/12/17 05:41:55;;;;;;;;;;;2.10;99.90;;;;;;5056534;28;20283;-79
2023/12/17 05:44:22;;;;;;;;;;;2.10;99.90;;;;;;5057985;28;19921;-79
2023/12/17 05:46:47;;;;;;;;;;;2.10;99.90;;;;;;5056440;28;19998;-79
2023/12/17 05:49:13;;;;;;;;;;;2.10;99.90;;;;;;5038133;28;20391;-79
2023/12/17 05:51:41;;;;;;;;;;;2.20;99.90;;;;;;5040083;28;20011;-79
2023/12/17 05:54:08;;;;;;;;;;;2.20;99.90;;;;;;5029545;28;19921;-79
2023/12/17 05:56:37;;;;;;;;;;;2.30;99.90;;;;;;5046148;28;19908;-79
2023/12/17 05:59:03;;;;;;;;;;;2.30;99.90;;;;;;5065901;28;19913;-79
2023/12/17 06:01:29;;;;;;;;;;;2.30;99.90;;;;;;5050861;28;19913;-79
2023/12/17 06:03:54;;;;;;;;;;;2.30;99.90;;;;;;5045673;28;19917;-78
2023/12/17 06:06:19;;;;;;;;;;;2.30;99.90;;;;;;5041794;28;19921;-79
2023/12/17 06:08:45;;;;;;;;;;;2.30;99.90;;;;;;5039671;28;19958;-79
2023/12/17 06:11:16;;;;;;;;;;;2.20;99.90;;;;;;5040133;28;19909;-79
2023/12/17 06:13:41;;;;;;;;;;;2.30;99.90;;;;;;5038737;28;20007;-79
2023/12/17 06:16:07;;;;;;;;;;;2.30;99.90;;;;;;5038088;28;19964;-79
2023/12/17 06:18:33;;;;;;;;;;;2.30;99.90;;;;;;5063538;28;20381;-79
2023/12/17 06:21:00;;;;;;;;;;;2.40;99.90;;;;;;5037777;28;19916;-79
2023/12/17 06:23:25;;;;;;;;;;;2.40;99.90;;;;;;5037589;28;19952;-79
2023/12/17 06:25:51;;;;;;;;;;;2.30;99.90;;;;;;5062971;28;19970;-79
2023/12/17 06:28:16;;;;;;;;;;;2.40;99.90;;;;;;5030682;28;19917;-79
2023/12/17 06:30:42;;;;;;;;;;;2.40;99.90;;;;;;5048650;28;19924;-79
2023/12/17 06:33:07;;;;;;;;;;;2.40;99.90;;;;;;5046635;28;20335;-79
2023/12/17 06:35:33;;;;;;;;;;;2.30;99.90;;;;;;5077507;28;19957;-79
2023/12/17 06:37:58;;;;;;;;;;;2.30;99.90;;;;;;5049969;28;19913;-79
2023/12/17 06:40:24;;;;;;;;;;;2.40;99.90;;;;;;5039103;28;19913;-79
2023/12/17 06:42:49;;;;;;;;;;;2.40;99.90;;;;;;5064207;28;19919;-78
2023/12/17 06:45:15;;;;;;;;;;;2.40;99.90;;;;;;5076692;28;19892;-79
2023/12/17 06:47:41;;;;;;;;;;;2.40;99.90;;;;;;5075645;28;19934;-79
2023/12/17 06:50:07;;;;;;;;;;;2.40;99.90;;;;;;5075230;28;19919;-79
2023/12/17 06:52:32;;;;;;;;;;;2.40;99.90;;;;;;5061065;28;19984;-79
2023/12/17 06:54:58;;;;;;;;;;;2.40;99.90;;;;;;5048173;28;19917;-80
2023/12/17 06:57:24;;;;;;;;;;;2.30;99.90;;;;;;5055850;28;20012;-79
2023/12/17 06:59:49;;;;;;;;;;;2.40;99.90;;;;;;5060008;28;19901;-79
2023/12/17 07:02:15;;;;;;;;;;;2.50;99.90;;;;;;5073164;28;19938;-79
2023/12/17 07:04:40;;;;;;;;;;;2.50;99.90;;;;;;5071761;28;19920;-79
2023/12/17 07:07:06;;;;;;;;;;;2.40;99.90;;;;;;5055928;28;19968;-78
2023/12/17 07:09:31;;;;;;;;;;;2.40;99.90;;;;;;5045668;28;19957;-78
2023/12/17 07:11:57;;;;;;;;;;;2.40;99.90;;;;;;5056646;28;19909;-79
2023/12/17 07:14:22;;;;;;;;;;;2.40;99.90;;;;;;5078113;28;20440;-79
2023/12/17 07:16:48;;;;;;;;;;;2.40;99.90;;;;;;5056587;28;19908;-79
2023/12/17 07:19:14;;;;;;;;;;;2.40;99.90;;;;;;5056666;28;19909;-79
2023/12/17 07:21:39;;;;;;;;;;;2.40;99.90;;;;;;5075548;28;20394;-79
2023/12/17 07:24:05;;;;;;;;;;;2.40;99.90;;;;;;5056523;28;19997;-79
2023/12/17 07:26:31;;;;;;;;;;;2.50;99.90;;;;;;5080972;28;19968;-79
2023/12/17 07:28:56;;;;;;;;;;;2.50;99.90;;;;;;5069003;28;19913;-79
2023/12/17 07:31:21;;;;;;;;;;;2.50;99.90;;;;;;5040983;28;19928;-79
2023/12/17 07:33:47;;;;;;;;;;;2.50;99.90;;;;;;5069081;28;20325;-79
2023/12/17 07:36:12;;;;;;;;;;;2.50;99.90;;;;;;5043908;28;19912;-79
2023/12/17 07:38:38;;;;;;;;;;;2.60;99.90;;;;;;5072974;28;19931;-79
2023/12/17 07:41:04;;;;;;;;;;;2.60;99.90;;;;;;5085503;28;19965;-78
2023/12/17 07:43:29;;;;;;;;;;;2.60;99.90;;;;;;5073827;28;19919;-79
2023/12/17 07:45:55;;;;;;;;;;;2.70;99.90;;;;;;5074379;28;19908;-79
2023/12/17 07:48:20;;;;;;;;;;;2.70;99.90;;;;;;5077484;28;20347;-78
2023/12/17 07:50:46;;;;;;;;;;;2.60;99.90;;;;;;5074066;28;19956;-79
2023/12/17 07:53:11;;;;;;;;;;;2.50;99.90;;;;;;5062219;28;19970;-79
2023/12/17 07:55:37;;;;;;;;;;;2.60;99.90;;;;;;5052588;28;19913;-79
2023/12/17 07:58:03;;;;;;;;;;;2.60;99.90;;;;;;5055370;28;19908;-79
2023/12/17 08:00:28;;;;;;;;;;;2.60;99.90;;;;;;5058805;28;19912;-79
2023/12/17 08:02:54;;;;;;;;;;;2.60;99.90;;;;;;5035980;28;20390;-79
2023/12/17 08:05:19;;;;;;;;;;;2.70;99.90;;;;;;5053524;28;19920;-79
2023/12/17 08:07:45;;;;;;;;;;;2.70;99.90;;;;;;5062758;28;19925;-79
2023/12/17 08:10:10;;;;;;;;;;;2.80;99.90;;;;;;5050452;28;19912;-79
2023/12/17 08:12:36;;;;;;;;;;;2.80;99.90;;;;;;5036930;28;19973;-79
2023/12/17 08:15:02;;;;;;;;;;;2.80;99.90;;;;;;5056120;28;19917;-79
2023/12/17 08:17:28;;;;;;;;;;;2.80;99.90;;;;;;5053825;28;19916;-79
2023/12/17 08:19:54;;;;;;;;;;;2.70;99.90;;;;;;5055881;28;19909;-79
2023/12/17 08:22:20;;;;;;;;;;;2.70;99.90;;;;;;5054742;28;19922;-79
2023/12/17 08:24:45;;;;;;;;;;;2.80;99.90;;;;;;5052425;28;19909;-79
2023/12/17 08:27:13;;;;;;;;;;;2.70;99.90;;;;;;5059759;28;19925;-79
2023/12/17 08:29:39;;;;;;;;;;;2.70;99.90;;;;;;5062105;28;19916;-79
2023/12/17 08:32:05;;;;;;;;;;;2.80;99.90;;;;;;5060635;28;19912;-79
2023/12/17 08:34:31;;;;;;;;;;;2.80;99.90;;;;;;5066618;28;19917;-78
2023/12/17 08:36:57;;;;;;;;;;;2.80;99.90;;;;;;5093646;28;19995;-79
2023/12/17 08:39:23;;;;;;;;;;;2.80;99.90;;;;;;5075209;28;19955;-79
2023/12/17 08:41:49;;;;;;;;;;;2.80;99.90;;;;;;5104185;28;20317;-79
2023/12/17 08:44:20;;;;;;;;;;;2.80;99.90;;;;;;5055650;28;19913;-79
2023/12/17 08:46:45;;;;;;;;;;;2.90;99.90;;;;;;5055351;28;19909;-79
2023/12/17 08:49:11;;;;;;;;;;;2.90;99.90;;;;;;5056968;28;19924;-79
2023/12/17 08:51:37;;;;;;;;;;;2.90;99.90;;;;;;5055429;28;19909;-79
2023/12/17 08:54:03;;;;;;;;;;;3.00;99.90;;;;;;5073046;28;19901;-79
2023/12/17 08:56:28;;;;;;;;;;;3.00;99.90;;;;;;5056989;28;20008;-79
2023/12/17 08:58:54;;;;;;;;;;;3.00;99.90;;;;;;5052105;28;19913;-79
2023/12/17 09:01:22;;;;;;;;;;;3.00;99.90;;;;;;5066764;28;19896;-79
2023/12/17 09:03:48;;;;;;;;;;;3.10;99.90;;;;;;5035230;28;19966;-79
2023/12/17 09:06:13;;;;;;;;;;;3.20;99.90;;;;;;5047554;28;20283;-79
2023/12/17 09:08:39;;;;;;;;;;;3.20;99.90;;;;;;5038079;28;19921;-79
2023/12/17 09:11:04;;;;;;;;;;;3.30;99.90;;;;;;5075348;28;19978;-79
2023/12/17 09:13:30;;;;;;;;;;;3.30;99.90;;;;;;5051275;28;19913;-79
2023/12/17 09:15:56;;;;;;;;;;;3.30;99.90;;;;;;5057785;28;20003;-79
2023/12/17 09:18:21;;;;;;;;;;;3.30;99.90;;;;;;5038889;28;19923;-79
2023/12/17 09:20:47;;;;;;;;;;;3.30;99.90;;;;;;5058657;28;19908;-79
2023/12/17 09:23:12;;;;;;;;;;;3.30;99.90;;;;;;5056762;28;20382;-79
2023/12/17 09:25:38;;;;;;;;;;;3.30;99.90;;;;;;5057226;28;20434;-79
2023/12/17 09:28:04;;;;;;;;;;;3.40;99.90;;;;;;5041429;28;20019;-79
2023/12/17 09:30:29;;;;;;;;;;;3.40;99.90;;;;;;5054936;28;19990;-79
2023/12/17 09:32:55;;;;;;;;;;;3.40;99.90;;;;;;5040434;28;19916;-79
2023/12/17 09:35:23;;;;;;;;;;;3.40;99.90;;;;;;5050733;28;20383;-79
2023/12/17 09:37:50;;;;;;;;;;;3.40;99.90;;;;;;5056495;28;20294;-79
2023/12/17 09:40:15;;;;;;;;;;;3.50;99.90;;;;;;5038681;28;20435;-79
2023/12/17 09:42:42;;;;;;;;;;;3.50;99.90;;;;;;5065691;28;19936;-79
2023/12/17 09:45:09;;;;;;;;;;;3.50;99.90;;;;;;5041462;28;20007;-79
2023/12/17 09:47:35;;;;;;;;;;;3.60;99.90;;;;;;5056440;28;20291;-79
2023/12/17 09:50:00;;;;;;;;;;;3.60;99.90;;;;;;5062672;28;19897;-79
2023/12/17 09:52:28;;;;;;;;;;;3.60;99.90;;;;;;5029719;28;19917;-79
2023/12/17 09:54:54;;;;;;;;;;;3.50;99.90;;;;;;5030316;28;19958;-79
2023/12/17 09:57:19;;;;;;;;;;;3.60;99.90;;;;;;5057664;28;19913;-79
2023/12/17 09:59:45;;;;;;;;;;;3.50;99.90;;;;;;5055386;28;19909;-79
2023/12/17 10:02:16;;;;;;;;;;;3.60;99.90;;;;;;5056270;28;19995;-79
2023/12/17 10:04:42;;;;;;;;;;;3.50;99.90;;;;;;5035887;28;20386;-79
2023/12/17 10:07:07;;;;;;;;;;;3.50;99.90;;;;;;5036058;28;19913;-79
2023/12/17 10:09:35;;;;;;;;;;;3.60;99.90;;;;;;5031966;28;19931;-79
2023/12/17 10:12:01;;;;;;;;;;;3.60;99.90;;;;;;5056043;28;20295;-79
2023/12/17 10:14:30;;;;;;;;;;;3.60;99.90;;;;;;5056113;28;19913;-79
2023/12/17 10:16:58;;;;;;;;;;;3.60;99.90;;;;;;5039754;28;19920;-79
2023/12/17 10:19:24;;;;;;;;;;;3.60;99.90;;;;;;5037569;28;19912;-79
2023/12/17 10:21:50;;;;;;;;;;;3.60;99.90;;;;;;5054771;28;19999;-79
2023/12/17 10:24:15;;;;;;;;;;;3.70;99.90;;;;;;5050300;28;20394;-79
2023/12/17 10:26:41;;;;;;;;;;;3.80;99.90;;;;;;5037902;28;19912;-79
2023/12/17 10:29:07;;;;;;;;;;;3.80;99.90;;;;;;5055612;28;19917;-79
2023/12/17 10:31:32;;;;;;;;;;;3.90;99.90;;;;;;5055633;28;19936;-79
2023/12/17 10:34:03;;;;;;;;;;;4.00;99.90;;;;;;5035415;28;19932;-79
2023/12/17 10:36:29;;;;;;;;;;;3.90;99.90;;;;;;5054025;28;19909;-79
2023/12/17 10:38:55;;;;;;;;;;;3.80;99.90;;;;;;5065032;28;19923;-78
2023/12/17 10:41:21;;;;;;;;;;;3.90;99.90;;;;;;5075442;28;19908;-79
2023/12/17 10:43:48;;;;;;;;;;;3.80;99.90;;;;;;5068608;28;19904;-79
2023/12/17 10:46:16;;;;;;;;;;;3.80;99.90;;;;;;5057207;28;19917;-79
2023/12/17 10:48:42;;;;;;;;;;;3.90;99.90;;;;;;5037476;28;19913;-79
2023/12/17 10:51:08;;;;;;;;;;;3.90;99.90;;;;;;5068021;28;19901;-79
2023/12/17 10:53:34;;;;;;;;;;;3.90;99.90;;;;;;5041989;28;19914;-79
2023/12/17 10:56:00;;;;;;;;;;;3.90;99.90;;;;;;5045329;28;19909;-79
2023/12/17 10:58:25;;;;;;;;;;;3.90;99.90;;;;;;5049811;28;19897;-79
2023/12/17 11:00:51;;;;;;;;;;;4.10;99.90;;;;;;5037150;28;19908;-79
2023/12/17 11:03:17;;;;;;;;;;;4.10;99.90;;;;;;5053753;28;20020;-79
2023/12/17 11:05:56;;;;;;;;;;;4.30;99.90;;;;;;5039677;28;19964;-79
2023/12/17 11:08:23;;;;;;;;;;;4.30;99.90;;;;;;5054866;28;20474;-79
2023/12/17 11:10:49;;;;;;;;;;;4.30;99.90;;;;;;5054500;28;19916;-79
2023/12/17 11:13:15;;;;;;;;;;;4.40;99.90;;;;;;5048683;28;19971;-79
2023/12/17 11:15:40;;;;;;;;;;;4.50;99.90;;;;;;5054846;28;20338;-78
2023/12/17 11:18:07;;;;;;;;;;;4.40;99.90;;;;;;5055923;28;20005;-79
2023/12/17 11:20:39;;;;;;;;;;;4.30;99.90;;;;;;5038754;28;19917;-79
2023/12/17 11:23:05;;;;;;;;;;;4.30;99.90;;;;;;5054312;28;20027;-79
2023/12/17 11:25:31;;;;;;;;;;;4.30;99.90;;;;;;5056224;28;20395;-79
2023/12/17 11:27:57;;;;;;;;;;;4.20;99.90;;;;;;5055051;28;19920;-79
2023/12/17 11:30:29;;;;;;;;;;;4.20;99.90;;;;;;5042921;28;19966;-79
2023/12/17 11:32:58;;;;;;;;;;;4.20;99.90;;;;;;5079259;28;19917;-79
2023/12/17 11:35:25;;;;;;;;;;;4.20;99.90;;;;;;5071848;28;19963;-79
2023/12/17 11:37:50;;;;;;;;;;;4.30;99.90;;;;;;5094353;28;19908;-79
2023/12/17 11:40:16;;;;;;;;;;;4.30;99.90;;;;;;5084222;28;19955;-79
2023/12/17 11:42:53;;;;;;;;;;;4.40;99.90;;;;;;5086280;28;19955;-79
2023/12/17 11:45:29;;;;;;;;;;;4.30;99.90;;;;;;5077092;28;20311;-79
2023/12/17 11:47:55;;;;;;;;;;;4.50;99.90;;;;;;5056591;28;19916;-79
2023/12/17 11:50:21;;;;;;;;;;;4.60;99.90;;;;;;5074891;28;19915;-78
2023/12/17 11:53:00;;;;;;;;;;;4.60;99.90;;;;;;5054883;28;20004;-79
2023/12/17 11:55:25;;;;;;;;;;;4.40;99.90;;;;;;5043249;28;19942;-79
2023/12/17 11:57:59;;;;;;;;;;;4.30;99.90;;;;;;5057732;28;19961;-79
2023/12/17 12:00:25;;;;;;;;;;;4.30;99.90;;;;;;5055805;28;19916;-79
2023/12/17 12:02:50;;;;;;;;;;;4.40;99.90;;;;;;5055981;28;20374;-79
2023/12/17 12:05:17;;;;;;;;;;;4.50;99.90;;;;;;5070770;28;19924;-79
2023/12/17 12:07:43;;;;;;;;;;;4.60;99.90;;;;;;5053887;28;19916;-79
2023/12/17 12:10:09;;;;;;;;;;;4.70;99.90;;;;;;5060278;28;19909;-79
2023/12/17 12:12:34;;;;;;;;;;;4.60;99.90;;;;;;5087073;28;19920;-79
2023/12/17 12:15:02;;;;;;;;;;;4.70;99.90;;;;;;5075918;28;19908;-79
2023/12/17 12:17:41;;;;;;;;;;;4.80;99.90;;;;;;5075743;28;19912;-79
2023/12/17 12:20:07;;;;;;;;;;;4.80;99.90;;;;;;5103288;28;19948;-79
2023/12/17 12:22:37;;;;;;;;;;;4.80;99.90;;;;;;5093636;28;19919;-79
2023/12/17 12:25:02;;;;;;;;;;;4.70;99.90;;;;;;5075708;28;19920;-79
2023/12/17 12:27:28;;;;;;;;;;;4.80;99.90;;;;;;5093078;28;19921;-79
2023/12/17 12:29:55;;;;;;;;;;;4.80;99.90;;;;;;5035671;28;19924;-79
2023/12/17 12:32:27;;;;;;;;;;;4.80;99.90;;;;;;5027664;28;19913;-78
2023/12/17 12:34:55;;;;;;;;;;;4.80;99.90;;;;;;5048198;28;19921;-79
2023/12/17 12:37:30;;;;;;;;;;;4.90;99.90;;;;;;5055201;28;20371;-79
2023/12/17 12:39:55;;;;;;;;;;;5.00;99.90;;;;;;5073526;28;19908;-79
2023/12/17 12:42:21;;;;;;;;;;;4.90;99.90;;;;;;5077365;28;19959;-78
2023/12/17 12:44:46;;;;;;;;;;;5.00;99.90;;;;;;5057032;28;20290;-79
2023/12/17 12:47:12;;;;;;;;;;;4.80;99.90;;;;;;5039661;28;19920;-79
2023/12/17 12:49:37;;;;;;;;;;;4.80;99.90;;;;;;5042520;28;20363;-79
2023/12/17 12:52:03;;;;;;;;;;;4.70;99.90;;;;;;5057404;28;19908;-79
2023/12/17 12:54:28;;;;;;;;;;;4.80;99.90;;;;;;5055668;28;19909;-78
2023/12/17 12:56:54;;;;;;;;;;;4.70;99.90;;;;;;5070789;28;19913;-79
2023/12/17 12:59:19;;;;;;;;;;;4.80;99.90;;;;;;5039273;28;19913;-79
2023/12/17 13:01:45;;;;;;;;;;;4.80;99.90;;;;;;5058018;28;20252;-79
2023/12/17 13:04:11;;;;;;;;;;;4.80;99.90;;;;;;5063755;28;19953;-79
2023/12/17 13:06:36;;;;;;;;;;;4.70;99.90;;;;;;5056068;28;19913;-79
2023/12/17 13:09:04;;;;;;;;;;;4.60;99.90;;;;;;5057158;28;19951;-79
2023/12/17 13:11:30;;;;;;;;;;;4.80;99.90;;;;;;5059891;28;19913;-79
2023/12/17 13:13:56;;;;;;;;;;;4.80;99.90;;;;;;5039167;28;19958;-79
2023/12/17 13:16:21;;;;;;;;;;;4.90;99.90;;;;;;5058845;28;19924;-79
2023/12/17 13:18:47;;;;;;;;;;;4.90;99.90;;;;;;5039205;28;20379;-79
2023/12/17 13:21:12;;;;;;;;;;;4.70;99.90;;;;;;5038729;28;19909;-79
2023/12/17 13:23:38;;;;;;;;;;;4.80;99.90;;;;;;5040292;28;19921;-79
2023/12/17 13:26:04;;;;;;;;;;;4.80;99.90;;;;;;5056587;28;19909;-79
2023/12/17 13:28:29;;;;;;;;;;;4.90;99.90;;;;;;5039056;28;19913;-79
2023/12/17 13:30:55;;;;;;;;;;;4.90;99.90;;;;;;5078557;28;19909;-78
2023/12/17 13:33:20;;;;;;;;;;;4.80;99.90;;;;;;5065151;28;19908;-79
2023/12/17 13:35:46;;;;;;;;;;;4.90;99.90;;;;;;5089297;28;19990;-79
2023/12/17 13:38:11;;;;;;;;;;;4.80;99.90;;;;;;5065626;28;20015;-79
2023/12/17 13:40:37;;;;;;;;;;;4.80;99.90;;;;;;5056559;28;19909;-79
2023/12/17 13:43:03;;;;;;;;;;;5.00;99.90;;;;;;5071685;28;19916;-79
2023/12/17 13:45:28;;;;;;;;;;;5.00;99.90;;;;;;5049447;28;19921;-79
2023/12/17 13:47:54;;;;;;;;;;;5.10;99.90;;;;;;5038511;28;19909;-79
2023/12/17 13:50:20;;;;;;;;;;;4.90;99.90;;;;;;5058659;28;19952;-79
2023/12/17 13:52:45;;;;;;;;;;;4.90;99.90;;;;;;5047930;28;20394;-79
2023/12/17 13:55:11;;;;;;;;;;;4.80;99.90;;;;;;5066123;28;19920;-79
2023/12/17 13:57:36;;;;;;;;;;;4.80;99.90;;;;;;5061320;28;19915;-79
2023/12/17 14:00:04;;;;;;;;;;;4.80;99.90;;;;;;5079114;28;19969;-79
2023/12/17 14:02:30;;;;;;;;;;;4.80;99.90;;;;;;5076146;28;19915;-79
2023/12/17 14:04:55;;;;;;;;;;;4.80;99.90;;;;;;5056132;28;19921;-79
2023/12/17 14:07:24;;;;;;;;;;;4.90;99.90;;;;;;5056242;28;19909;-79
2023/12/17 14:09:49;;;;;;;;;;;5.00;99.90;;;;;;5037832;28;19954;-79
2023/12/17 14:12:15;;;;;;;;;;;4.90;99.90;;;;;;5051530;28;20379;-79
2023/12/17 14:14:44;;;;;;;;;;;4.90;99.90;;;;;;5038396;28;19908;-79
2023/12/17 14:17:09;;;;;;;;;;;4.80;99.90;;;;;;5055812;28;20043;-79
2023/12/17 14:19:35;;;;;;;;;;;4.80;99.90;;;;;;5039691;28;20409;-79
2023/12/17 14:22:02;;;;;;;;;;;4.80;99.90;;;;;;5037850;28;19944;-79
2023/12/17 14:24:28;;;;;;;;;;;4.80;99.90;;;;;;5055540;28;20398;-79